Barefoot Beach, Florida
Current Conditions -  °F | °C
As of 2:53 PM on Saturday 20 Dec 2014 (Local Time) from KRSW Reporting Station
Clear Clear  
Wind Chill: 79°   Ceiling: Unl
Heat Index: 80°   Visibility: 10mi
Dew Point: 58°   Wind: 5mph
Humidity: 48%   Direction: 130°SE
Pressure: 30.02"   Gusts: NA
Location:  26.3649°N, 81.8304°W
Report Text: KRSW 201953Z 13004KT 10SM CLR 26/14 A3002 RMK AO2 SLP163 T02610144
Loading
Personal Weather Stations






























Interactive Weather Map New forecast layout! Learn more

10-Day Weather Forecast

Advertisements
Track Severe Weather on mobile